Home > Products > Valid Products > TAF

000
FTUS42 KGSP 292336
TAFGSP
TAF
KGSP 292336Z 3000/3024 VRB04KT P6SM BKN250
     FM301700 15005KT P6SM BKN045 PROB30 3018/3020 4SM -SHRA OVC025
     FM302000 17006KT P6SM VCSH BKN045 PROB30 3020/3024 3SM -TSRA
      OVC025CB=



000
FTUS42 KGSP 292336
TAFAVL
TAF
KAVL 292336Z 3000/3024 34005KT P6SM BKN250
     FM301500 15006KT P6SM BKN080 PROB30 3018/3024 3SM -SHRA OVC025=



000
FTUS42 KGSP 292336
TAFCLT
TAF
KCLT 292336Z 3000/3024 21004KT P6SM SCT250
     FM300500 11003KT P6SM BKN200
     FM301300 06006KT P6SM SCT045 BKN200
     FM301500 08006KT P6SM BKN025 PROB30 3018/3020 2SM -SHRA OVC015
     FM302000 12006KT P6SM VCSH BKN025 PROB30 3020/3024 2SM -TSRA
      OVC015CB=



000
FTUS42 KGSP 292106 AAA
TAFCLT
TAF AMD
KCLT 292106Z 2921/3018 22005KT P6SM SCT200
     FM300900 08003KT P6SM BKN200
     FM301300 07006KT P6SM SCT070 BKN200=



000
FTUS42 KGSP 291734
TAFCLT
TAF
KCLT 291734Z 2918/3018 35004KT P6SM SCT250
     FM292000 25004KT P6SM SCT200
     FM300900 08003KT P6SM BKN200
     FM301300 07006KT P6SM SCT070 BKN200=



000
FTUS42 KGSP 291734
TAFGSP
TAF
KGSP 291734Z 2918/3018 VRB03KT P6SM SCT250
     FM301400 06006KT P6SM SCT110 BKN200
     FM301700 15005KT P6SM BKN140=



000
FTUS42 KGSP 291734
TAFAVL
TAF
KAVL 291734Z 2918/3018 34009KT P6SM SCT200
     FM300100 33004KT P6SM SCT080 BKN200
     FM301500 15006KT P6SM BKN080=



000
FTUS42 KGSP 291734
TAFAVL
TAF
KAVL 291734Z 2918/3018 34009KT P6SM SCT200
     FM300100 33004KT P6SM SCT080 BKN200
     FM301500 15006KT P6SM BKN080=



000
FTUS42 KGSP 291734
TAFGSP
TAF
KGSP 291734Z 2918/3018 VRB03KT P6SM SCT250
     FM301400 06006KT P6SM SCT110 BKN200
     FM301700 15005KT P6SM BKN140=



000
FTUS42 KGSP 291544 AAB
TAFCLT
TAF AMD
KCLT 291544Z 2916/3012 01005KT P6SM FEW250
     FM291900 25005KT P6SM FEW250
     FM300200 12003KT P6SM SCT150 BKN250=



000
FTUS42 KGSP 291544 AAB
TAFCLT
TAF AMD
KCLT 291544Z 2916/3012 01005KT P6SM FEW250
     FM291900 25005KT P6SM FEW250
     FM300200 12003KT P6SM SCT150 BKN250=



000
FTUS42 KGSP 291309 AAA
TAFCLT
TAF AMD
KCLT 291309Z 2913/3012 36004KT P6SM FEW006 SCT250
     FM291400 35005KT P6SM SKC
     FM291900 25005KT P6SM FEW250
     FM300200 12003KT P6SM SCT150 BKN250=



000
FTUS42 KGSP 291128
TAFAVL
TAF
KAVL 291128Z 2912/3012 35007KT P6SM SKC
     FM300400 VRB03KT P6SM SCT180 BKN250=



000
FTUS42 KGSP 291128
TAFGSP
TAF
KGSP 291128Z 2912/3012 35005KT P6SM SKC
     FM291800 25006KT P6SM SCT250
     FM300100 VRB03KT P6SM FEW120 BKN250=



000
FTUS42 KGSP 291128
TAFCLT
TAF
KCLT 291128Z 2912/3012 36004KT P6SM OVC004
     FM291300 01005KT P6SM FEW010
      TEMPO 2913/2914 BKN004
     FM291500 35005KT P6SM SKC
     FM291900 25005KT P6SM FEW250
     FM300200 12003KT P6SM SCT150 BKN250=



000
FTUS42 KGSP 290824 AAA
TAFCLT
TAF AMD
KCLT 290824Z 2908/3006 36004KT P6SM SKC
     FM290900 01005KT P6SM BKN006
     FM291300 35006KT P6SM SCT010
     FM291700 25005KT P6SM SCT250
     FM300100 21004KT P6SM SCT120 BKN250=



000
FTUS42 KGSP 290525
TAFCLT
TAF
KCLT 290525Z 2906/3006 36004KT P6SM SKC
     FM291700 25005KT P6SM SCT250
     FM300100 21004KT P6SM SCT120 BKN250=



000
FTUS42 KGSP 290525
TAFGSP
TAF
KGSP 290525Z 2906/3006 00000KT P6SM SKC
     FM291400 34003KT P6SM SKC
     FM291700 25005KT P6SM SCT250
     FM300100 21003KT P6SM FEW120 BKN250=



000
FTUS42 KGSP 290525
TAFAVL
TAF
KAVL 290525Z 2906/3006 00000KT P6SM SKC
     FM291300 35006KT P6SM SCT250
     FM300100 34003KT P6SM SCT110 BKN250=



000
FTUS42 KGSP 290230 AAA
TAFCLT
TAF AMD
KCLT 290230Z 2903/2924 24004KT P6SM FEW250
     FM290600 30003KT P6SM FEW250
     FM291700 28005KT P6SM SKC=



000
FTUS42 KGSP 290230 AAA
TAFCLT
TAF AMD
KCLT 290230Z 2903/2924 24004KT P6SM FEW250
     FM290600 30003KT P6SM FEW250
     FM291700 28005KT P6SM SKC=



000
FTUS42 KGSP 282320
TAFAVL
TAF
KAVL 282320Z 2900/2924 34010G20KT P6SM FEW250
     FM290200 33007KT P6SM FEW250=



000
FTUS42 KGSP 282320
TAFCLT
TAF
KCLT 282320Z 2900/2924 23010G20KT P6SM SCT050
     FM290300 24004KT P6SM FEW060
     FM290600 30003KT P6SM FEW250
     FM291700 28005KT P6SM SKC=



000
FTUS42 KGSP 282320
TAFGSP
TAF
KGSP 282320Z 2900/2924 22010G20KT P6SM FEW060
     FM290300 26006KT P6SM SKC
     FM290900 VRB03KT P6SM SKC
     FM291900 24006KT P6SM SKC=



000
FTUS42 KGSP 282047 AAA
TAFCLT
TAF AMD
KCLT 282047Z 2821/2918 23011G20KT P6SM VCSH BKN050
     FM290000 25006KT P6SM SCT060
     FM290500 VRB03KT P6SM FEW250=



000
FTUS42 KGSP 281737
TAFCLT
TAF
KCLT 281737Z 2818/2918 22009G17KT P6SM SCT040
     FM282000 23011G20KT P6SM VCSH BKN050
      TEMPO 2820/2824 VRB10G20KT 4SM -TSRA OVC025CB
     FM290200 25006KT P6SM SCT060
     FM290500 VRB03KT P6SM FEW250=



000
FTUS42 KGSP 281737
TAFGSP
TAF
KGSP 281737Z 2818/2918 22013G22KT P6SM VCSH BKN045
     FM282300 24011KT P6SM FEW250
     FM290900 VRB03KT P6SM SKC
     FM291700 27005KT P6SM SKC=



000
FTUS42 KGSP 281737
TAFAVL
TAF
KAVL 281737Z 2818/2918 19010KT P6SM VCSH SCT050
     FM282300 30007KT P6SM FEW250
     FM290200 32003KT P6SM FEW250
     FM290700 33007KT P6SM FEW250=



000
FTUS42 KGSP 281737
TAFCLT
TAF
KCLT 281737Z 2818/2918 22009G17KT P6SM SCT040
     FM282000 23011G20KT P6SM VCSH BKN050
      TEMPO 2820/2824 VRB10G20KT 4SM -TSRA OVC025CB
     FM290200 25006KT P6SM SCT060
     FM290500 VRB03KT P6SM FEW250=



000
FTUS42 KGSP 281737
TAFAVL
TAF
KAVL 281737Z 2818/2918 19010KT P6SM VCSH SCT050
     FM282300 30007KT P6SM FEW250
     FM290200 32003KT P6SM FEW250
     FM290700 33007KT P6SM FEW250=



000
FTUS42 KGSP 281737
TAFGSP
TAF
KGSP 281737Z 2818/2918 22013G22KT P6SM VCSH BKN045
     FM282300 24011KT P6SM FEW250
     FM290900 VRB03KT P6SM SKC
     FM291700 27005KT P6SM SKC=



000
FTUS42 KGSP 281459 AAA
TAFCLT
TAF AMD
KCLT 281459Z 2815/2912 25007KT P6SM SCT025
     FM281800 23009G18KT P6SM VCSH BKN040
      TEMPO 2820/2824 VRB10G20KT 4SM -TSRA BKN035 OVC050CB
     FM290100 25006KT P6SM BKN060
     FM290500 32004KT P6SM FEW060 SCT250=



000
FTUS42 KGSP 281459 AAA
TAFCLT
TAF AMD
KCLT 281459Z 2815/2912 25007KT P6SM SCT025
     FM281800 23009G18KT P6SM VCSH BKN040
      TEMPO 2820/2824 VRB10G20KT 4SM -TSRA BKN035 OVC050CB
     FM290100 25006KT P6SM BKN060
     FM290500 32004KT P6SM FEW060 SCT250=



000
FTUS42 KGSP 281131
TAFAVL
TAF
KAVL 281131Z 2812/2912 34005KT P6SM FEW040 SCT200
     FM281500 21008KT P6SM VCSH BKN050
     FM281800 23010G17KT P6SM VCTS BKN045CB
     FM282100 33014G20KT P6SM BKN050
     FM290100 34008KT P6SM FEW060 SCT250
     FM290800 35006KT P6SM FEW250=



000
FTUS42 KGSP 281131
TAFCLT
TAF
KCLT 281131Z 2812/2912 19006KT P6SM SCT050 BKN150
      TEMPO 2812/2814 6SM -SHRA BR OVC035
     FM281400 23008KT P6SM BKN050
     FM281600 23009G18KT P6SM VCSH BKN040 PROB30 2821/2824 4SM TSRA
      OVC035CB
     FM290100 25006KT P6SM BKN060
     FM290500 32004KT P6SM FEW060 SCT250=



000
FTUS42 KGSP 281131
TAFGSP
TAF
KGSP 281131Z 2812/2912 23008KT P6SM FEW025 SCT060
     FM281500 24011G19KT P6SM VCSH BKN050 PROB30 2821/2824 5SM -TSRA
      OVC040CB
     FM290300 26006KT P6SM FEW060 SCT250
     FM290900 32005KT P6SM FEW250=



000
FTUS42 KGSP 281040 AAB
TAFCLT
TAF AMD
KCLT 281040Z 2811/2906 19006KT P6SM SCT050 BKN150
      TEMPO 2811/2814 6SM -SHRA BR OVC035
     FM281400 23008KT P6SM BKN050
     FM281600 23009G18KT P6SM VCSH BKN040 PROB30 2821/2824 4SM TSRA
      OVC035CB
     FM290100 25006KT P6SM BKN060
     FM290500 32004KT P6SM FEW060 SCT250=



000
FTUS42 KGSP 281040 AAB
TAFCLT
TAF AMD
KCLT 281040Z 2811/2906 19006KT P6SM SCT050 BKN150
      TEMPO 2811/2814 6SM -SHRA BR OVC035
     FM281400 23008KT P6SM BKN050
     FM281600 23009G18KT P6SM VCSH BKN040 PROB30 2821/2824 4SM TSRA
      OVC035CB
     FM290100 25006KT P6SM BKN060
     FM290500 32004KT P6SM FEW060 SCT250=



000
FTUS42 KGSP 281011 AAA
TAFAVL
TAF AMD
KAVL 281011Z 2810/2906 34005KT P6SM VCSH SCT060 BKN120
     FM281400 21009KT P6SM VCSH SCT050 BKN150 PROB30 2819/2821 4SM
      -TSRA BKN050CB
     FM282100 33012G20KT P6SM VCSH BKN050
     FM290300 34009KT P6SM SCT060=



000
FTUS42 KGSP 280843 AAA
TAFCLT
TAF AMD
KCLT 280843Z 2809/2906 19005KT P6SM FEW020 SCT060 BKN150
     FM281500 22009G17KT P6SM VCSH SCT060 BKN200 PROB30 2819/2823
      4SM -TSRA OVC035CB
     FM290100 24006KT P6SM SCT080 BKN250=



000
FTUS42 KGSP 280843 AAA
TAFCLT
TAF AMD
KCLT 280843Z 2809/2906 19005KT P6SM FEW020 SCT060 BKN150
     FM281500 22009G17KT P6SM VCSH SCT060 BKN200 PROB30 2819/2823
      4SM -TSRA OVC035CB
     FM290100 24006KT P6SM SCT080 BKN250=



000
FTUS42 KGSP 280536
TAFGSP
TAF
KGSP 280536Z 2806/2906 22005KT P6SM FEW060 BKN200
     FM280900 23006KT P6SM VCSH BKN070
     FM281500 24012G19KT P6SM VCSH SCT060 BKN250 PROB30 2818/2822
      5SM -TSRA BKN040CB
     FM290000 25007KT P6SM FEW070 SCT250=



000
FTUS42 KGSP 280536
TAFAVL
TAF
KAVL 280536Z 2806/2906 34005KT P6SM VCSH SCT060 BKN120
     FM281000 VRB03KT 5SM BR VCSH SCT050 BKN100
     FM281400 21009KT P6SM VCSH SCT050 BKN150 PROB30 2817/2821 4SM
      -TSRA BKN050CB
     FM282100 33012G20KT P6SM VCSH BKN050
     FM290300 34009KT P6SM SCT060=



000
FTUS42 KGSP 280536
TAFCLT
TAF
KCLT 280536Z 2806/2906 19005KT P6SM SCT060 BKN250
     FM280900 19005KT P6SM FEW020 BKN050
     FM281500 22009G17KT P6SM VCSH SCT060 BKN200 PROB30 2819/2823
      4SM -TSRA OVC035CB
     FM290100 24006KT P6SM SCT080 BKN250=



000
FTUS42 KGSP 280249 AAA
TAFCLT
TAF AMD
KCLT 280249Z 2803/2824 20008KT P6SM FEW060 SCT250
     FM281200 20006KT P6SM VCSH BKN040 BKN150
     FM281500 21010KT P6SM VCSH BKN035 BKN090 PROB30 2815/2821 4SM
      -TSRA OVC040CB=



000
FTUS42 KGSP 272334
TAFCLT
TAF
KCLT 272334Z 2800/2824 20008KT P6SM FEW060 SCT250
     FM281200 20006KT P6SM VCSH BKN040 BKN150
     FM281500 21010KT P6SM VCSH BKN035 BKN090 PROB30 2815/2821 4SM
      -TSRA OVC040CB=



000
FTUS42 KGSP 272334
TAFCLT
TAF
KCLT 272334Z 2800/2824 20008KT P6SM FEW060 SCT250
     FM281200 20006KT P6SM VCSH BKN040 BKN150
     FM281500 21010KT P6SM VCSH BKN035 BKN090 PROB30 2815/2821 4SM
      -TSRA OVC040CB=



000
FTUS42 KGSP 272334
TAFAVL
TAF
KAVL 272334Z 2800/2824 18005KT P6SM SCT060
     FM280900 33005KT P6SM -SHRA OVC045 PROB30 2810/2813 4SM -TSRA
      OVC040CB
     FM281300 21004KT P6SM -SHRA VCTS BKN040CB
     FM281600 20005KT P6SM VCSH BKN045 BKN090 PROB30 2816/2820 4SM
      -TSRA OVC040CB=



000
FTUS42 KGSP 272334
TAFGSP
TAF
KGSP 272334Z 2800/2824 20008KT P6SM FEW050 SCT250
     FM281100 20006KT P6SM VCSH BKN050 BKN150
     FM281400 23010KT P6SM VCSH BKN040 BKN090 PROB30 2815/2821 4SM
      -TSRA OVC040CB=



000
FTUS42 KGSP 272334
TAFAVL
TAF
KAVL 272334Z 2800/2824 18005KT P6SM SCT060
     FM280900 33005KT P6SM -SHRA OVC045 PROB30 2810/2813 4SM -TSRA
      OVC040CB
     FM281300 21004KT P6SM -SHRA VCTS BKN040CB
     FM281600 20005KT P6SM VCSH BKN045 BKN090 PROB30 2816/2820 4SM
      -TSRA OVC040CB=



000
FTUS42 KGSP 272334
TAFGSP
TAF
KGSP 272334Z 2800/2824 20008KT P6SM FEW050 SCT250
     FM281100 20006KT P6SM VCSH BKN050 BKN150
     FM281400 23010KT P6SM VCSH BKN040 BKN090 PROB30 2815/2821 4SM
      -TSRA OVC040CB=



000
FTUS42 KGSP 272057 AAA
TAFCLT
TAF AMD
KCLT 272057Z 2721/2818 22010G18KT P6SM SCT050 BKN250
     FM280000 19005KT P6SM SCT060 BKN250
     FM281200 22010KT P6SM VCSH SCT060 BKN090 PROB30 2814/2818 4SM
      -TSRA OVC040CB=



000
FTUS42 KGSP 271913 AAA
TAFAVL
TAF AMD
KAVL 271913Z 2719/2818 19005KT P6SM VCTS BKN045CB
      TEMPO 2719/2720 VRB10G20KT 3SM TSRA BR BKN040CB
     FM280300 17003KT P6SM VCSH BKN060
     FM281400 20005KT P6SM SCT045 BKN090 PROB30 2814/2818 4SM -TSRA
      OVC040CB=



000
FTUS42 KGSP 271735
TAFGSP
TAF
KGSP 271735Z 2718/2818 23010G18KT P6SM SCT050 BKN250
     FM280000 21006KT P6SM SCT050 BKN250
     FM280600 21006KT P6SM VCSH SCT050 BKN090
     FM281400 23011KT P6SM SCT050 BKN090 PROB30 2814/2818 4SM -TSRA
      OVC040CB=



000
FTUS42 KGSP 271735
TAFAVL
TAF
KAVL 271735Z 2718/2818 20005KT P6SM SCT045 BKN070
     FM272100 19005KT P6SM VCTS BKN045CB
     FM280300 17003KT P6SM VCSH BKN060
     FM281400 20005KT P6SM SCT045 BKN090 PROB30 2814/2818 4SM -TSRA
      OVC040CB=



000
FTUS42 KGSP 271735
TAFCLT
TAF
KCLT 271735Z 2718/2818 22010G18KT P6SM SCT050 BKN250
     FM280100 19005KT P6SM VCSH SCT060 BKN250
      TEMPO 2801/2804 VRB10G20KT 6SM -SHRA BR BKN060
     FM281400 22010KT P6SM SCT060 BKN090 PROB30 2814/2818 4SM -TSRA
      OVC040CB=



000
FTUS42 KGSP 271456 AAA
TAFCLT
TAF AMD
KCLT 271456Z 2715/2812 22009G18KT P6SM SCT060
     FM280200 21005KT P6SM VCSH SCT060 BKN150=



000
FTUS42 KGSP 271456 AAA
TAFCLT
TAF AMD
KCLT 271456Z 2715/2812 22009G18KT P6SM SCT060
     FM280200 21005KT P6SM VCSH SCT060 BKN150=



000
FTUS42 KGSP 271135
TAFGSP
TAF
KGSP 271135Z 2712/2812 23005KT P6SM SCT250
     FM271500 24009G17KT P6SM SCT060
     FM280000 21005KT P6SM FEW060 BKN200
     FM280800 22005KT P6SM BKN060=



000
FTUS42 KGSP 271135
TAFCLT
TAF
KCLT 271135Z 2712/2812 21005KT P6SM BKN250
     FM271500 22009G18KT P6SM SCT060 PROB30 2722/2802 4SM -TSRA
      OVC040CB
     FM280200 21005KT P6SM VCSH SCT060 BKN150=



000
FTUS42 KGSP 271135
TAFAVL
TAF
KAVL 271135Z 2712/2812 VRB03KT P6SM BKN250
     FM271500 33005KT P6SM VCSH SCT060
     FM271900 20007KT P6SM VCTS BKN050CB
     FM272300 21005KT P6SM BKN050 PROB30 2723/2805 4SM -TSRA
      OVC040CB=



000
FTUS42 KGSP 270852 AAA
TAFCLT
TAF AMD
KCLT 270852Z 2709/2806 21006KT P6SM SCT250
     FM271500 22010G17KT P6SM SCT050 PROB30 2722/2802 4SM -TSRA
      BKN040CB
     FM280200 19006KT P6SM SCT050 BKN250=



000
FTUS42 KGSP 270527
TAFAVL
TAF
KAVL 270527Z 2706/2806 21004KT P6SM SCT060 BKN250
     FM271200 34006KT P6SM VCSH SCT050 BKN200
     FM271800 20008KT P6SM VCSH BKN060 PROB30 2720/2802 4SM -TSRA
      OVC035CB
     FM280200 VRB03KT P6SM VCSH BKN035=



000
FTUS42 KGSP 270527
TAFCLT
TAF
KCLT 270527Z 2706/2806 22005KT P6SM SCT250
     FM271500 22010G17KT P6SM SCT050 PROB30 2722/2802 4SM -TSRA
      BKN040CB
     FM280200 19006KT P6SM SCT050 BKN250=



000
FTUS42 KGSP 270527
TAFGSP
TAF
KGSP 270527Z 2706/2806 23005KT P6SM FEW060 SCT250
     FM271500 23010G17KT P6SM SCT050
     FM280000 22006KT P6SM SCT050 BKN250=



    US Dept of Commerce
    National Oceanic and Atmospheric Administration
    National Weather Service
    1325 East West Highway
    Silver Spring, MD 20910
    Page Author: NWS Internet Services Team
Disclaimer
Information Quality
Credits
Glossary
Privacy Policy
Freedom of Information Act (FOIA)
About Us
Career Opportunities